Incourt, Belgium
Current Conditions -  °F | °C
As of 11:25 AM on Thursday 23 Oct 2014 (Local Time) from EBBE Reporting Station
Broken Clouds Broken Clouds  
Wind Chill: 52°   Ceiling: 3000
Heat Index: 52°   Visibility: 6mi
Dew Point: 48°   Wind: 7mph
Humidity: 88%   Direction: 220°SW
Pressure: 30.24"   Gusts: NA
Location:  50.69°N, 4.8°E
Report Text: EBBE 230925Z 22006KT 9000 BKN030 11/09 Q1024 BLU BLU
Loading
Personal Weather Stations






























Interactive Weather Map New forecast layout! Learn more

10-Day Weather Forecast

Advertisements
Track Severe Weather on mobile